sensor_id;sensor_type;location;lat;lon;timestamp;P1;durP1;ratioP1;P2;durP2;ratioP2
24084;SDS011;12268;52.110;5.548;2023-07-30T00:01:42;9.07;;;3.20;;
24084;SDS011;12268;52.110;5.548;2023-07-30T00:04:08;13.02;;;3.58;;
24084;SDS011;12268;52.110;5.548;2023-07-30T00:06:34;7.50;;;3.03;;
24084;SDS011;12268;52.110;5.548;2023-07-30T00:08:59;11.93;;;3.30;;
24084;SDS011;12268;52.110;5.548;2023-07-30T00:11:25;15.77;;;3.50;;
24084;SDS011;12268;52.110;5.548;2023-07-30T00:13:50;10.70;;;3.88;;
24084;SDS011;12268;52.110;5.548;2023-07-30T00:16:16;10.85;;;4.15;;
24084;SDS011;12268;52.110;5.548;2023-07-30T00:18:41;9.25;;;3.38;;
24084;SDS011;12268;52.110;5.548;2023-07-30T00:21:07;13.10;;;3.92;;
24084;SDS011;12268;52.110;5.548;2023-07-30T00:23:32;13.60;;;3.80;;
24084;SDS011;12268;52.110;5.548;2023-07-30T00:25:58;14.98;;;3.85;;
24084;SDS011;12268;52.110;5.548;2023-07-30T00:28:23;12.23;;;4.18;;
24084;SDS011;12268;52.110;5.548;2023-07-30T00:30:49;9.80;;;4.07;;
24084;SDS011;12268;52.110;5.548;2023-07-30T00:33:14;11.43;;;4.25;;
24084;SDS011;12268;52.110;5.548;2023-07-30T00:35:40;9.48;;;3.78;;
24084;SDS011;12268;52.110;5.548;2023-07-30T00:38:05;10.05;;;4.75;;
24084;SDS011;12268;52.110;5.548;2023-07-30T00:40:31;15.25;;;4.53;;
24084;SDS011;12268;52.110;5.548;2023-07-30T00:42:56;12.13;;;4.43;;
24084;SDS011;12268;52.110;5.548;2023-07-30T00:45:22;14.43;;;4.47;;
24084;SDS011;12268;52.110;5.548;2023-07-30T00:47:49;12.75;;;4.30;;
24084;SDS011;12268;52.110;5.548;2023-07-30T00:50:14;10.05;;;4.55;;
24084;SDS011;12268;52.110;5.548;2023-07-30T00:52:41;8.27;;;4.18;;
24084;SDS011;12268;52.110;5.548;2023-07-30T00:55:08;19.13;;;4.20;;
24084;SDS011;12268;52.110;5.548;2023-07-30T00:57:35;13.25;;;4.40;;
24084;SDS011;12268;52.110;5.548;2023-07-30T01:00:02;12.85;;;4.70;;
24084;SDS011;12268;52.110;5.548;2023-07-30T01:02:32;9.95;;;4.65;;
24084;SDS011;12268;52.110;5.548;2023-07-30T01:04:58;13.02;;;4.68;;
24084;SDS011;12268;52.110;5.548;2023-07-30T01:07:25;13.73;;;4.40;;
24084;SDS011;12268;52.110;5.548;2023-07-30T01:10:11;18.58;;;4.78;;
24084;SDS011;12268;52.110;5.548;2023-07-30T01:12:37;12.43;;;4.22;;
24084;SDS011;12268;52.110;5.548;2023-07-30T01:15:15;10.88;;;4.07;;
24084;SDS011;12268;52.110;5.548;2023-07-30T01:17:41;10.65;;;4.68;;
24084;SDS011;12268;52.110;5.548;2023-07-30T01:20:07;13.50;;;4.70;;
24084;SDS011;12268;52.110;5.548;2023-07-30T01:22:32;12.80;;;4.53;;
24084;SDS011;12268;52.110;5.548;2023-07-30T01:24:58;10.52;;;4.30;;
24084;SDS011;12268;52.110;5.548;2023-07-30T01:27:34;14.18;;;4.57;;
24084;SDS011;12268;52.110;5.548;2023-07-30T01:30:18;12.82;;;4.00;;
24084;SDS011;12268;52.110;5.548;2023-07-30T01:32:50;13.73;;;4.80;;
24084;SDS011;12268;52.110;5.548;2023-07-30T01:35:17;13.95;;;5.05;;
24084;SDS011;12268;52.110;5.548;2023-07-30T01:37:47;16.27;;;4.72;;
24084;SDS011;12268;52.110;5.548;2023-07-30T01:40:14;15.02;;;4.38;;
24084;SDS011;12268;52.110;5.548;2023-07-30T01:42:40;16.25;;;4.35;;
24084;SDS011;12268;52.110;5.548;2023-07-30T01:45:06;15.02;;;4.70;;
24084;SDS011;12268;52.110;5.548;2023-07-30T01:47:33;13.38;;;4.38;;
24084;SDS011;12268;52.110;5.548;2023-07-30T01:50:02;15.10;;;4.82;;
24084;SDS011;12268;52.110;5.548;2023-07-30T01:52:28;15.38;;;4.45;;
24084;SDS011;12268;52.110;5.548;2023-07-30T01:54:53;10.98;;;4.40;;
24084;SDS011;12268;52.110;5.548;2023-07-30T01:57:21;10.82;;;4.60;;
24084;SDS011;12268;52.110;5.548;2023-07-30T01:59:46;14.05;;;4.78;;
24084;SDS011;12268;52.110;5.548;2023-07-30T02:02:13;14.00;;;4.40;;
24084;SDS011;12268;52.110;5.548;2023-07-30T02:04:38;17.67;;;4.63;;
24084;SDS011;12268;52.110;5.548;2023-07-30T02:07:04;13.68;;;4.40;;
24084;SDS011;12268;52.110;5.548;2023-07-30T02:09:30;20.70;;;5.60;;
24084;SDS011;12268;52.110;5.548;2023-07-30T02:11:55;16.70;;;4.50;;
24084;SDS011;12268;52.110;5.548;2023-07-30T02:14:21;14.98;;;4.65;;
24084;SDS011;12268;52.110;5.548;2023-07-30T02:16:46;15.25;;;4.50;;
24084;SDS011;12268;52.110;5.548;2023-07-30T02:19:12;12.32;;;4.38;;
24084;SDS011;12268;52.110;5.548;2023-07-30T02:21:37;11.88;;;4.65;;
24084;SDS011;12268;52.110;5.548;2023-07-30T02:24:07;17.48;;;4.70;;
24084;SDS011;12268;52.110;5.548;2023-07-30T02:26:35;14.75;;;4.55;;
24084;SDS011;12268;52.110;5.548;2023-07-30T02:29:00;15.18;;;4.68;;
24084;SDS011;12268;52.110;5.548;2023-07-30T02:31:26;20.35;;;5.07;;
24084;SDS011;12268;52.110;5.548;2023-07-30T02:33:52;17.85;;;5.18;;
24084;SDS011;12268;52.110;5.548;2023-07-30T02:36:19;15.23;;;5.10;;
24084;SDS011;12268;52.110;5.548;2023-07-30T02:38:44;16.48;;;4.75;;
24084;SDS011;12268;52.110;5.548;2023-07-30T02:41:10;18.00;;;4.60;;
24084;SDS011;12268;52.110;5.548;2023-07-30T02:43:36;18.20;;;4.95;;
24084;SDS011;12268;52.110;5.548;2023-07-30T02:46:01;17.75;;;5.57;;
24084;SDS011;12268;52.110;5.548;2023-07-30T02:48:27;16.30;;;5.32;;
24084;SDS011;12268;52.110;5.548;2023-07-30T02:50:52;16.25;;;4.72;;
24084;SDS011;12268;52.110;5.548;2023-07-30T02:53:18;21.92;;;6.15;;
24084;SDS011;12268;52.110;5.548;2023-07-30T02:55:43;20.52;;;5.55;;
24084;SDS011;12268;52.110;5.548;2023-07-30T02:58:09;18.42;;;5.38;;
24084;SDS011;12268;52.110;5.548;2023-07-30T03:00:35;23.38;;;5.55;;
24084;SDS011;12268;52.110;5.548;2023-07-30T03:03:01;19.17;;;5.18;;
24084;SDS011;12268;52.110;5.548;2023-07-30T03:05:27;23.25;;;5.60;;
24084;SDS011;12268;52.110;5.548;2023-07-30T03:07:54;20.90;;;5.57;;
24084;SDS011;12268;52.110;5.548;2023-07-30T03:10:19;18.05;;;5.55;;
24084;SDS011;12268;52.110;5.548;2023-07-30T03:12:45;18.30;;;6.00;;
24084;SDS011;12268;52.110;5.548;2023-07-30T03:15:10;18.40;;;5.72;;
24084;SDS011;12268;52.110;5.548;2023-07-30T03:17:36;21.50;;;5.88;;
24084;SDS011;12268;52.110;5.548;2023-07-30T03:20:02;22.92;;;5.90;;
24084;SDS011;12268;52.110;5.548;2023-07-30T03:22:29;27.73;;;5.90;;
24084;SDS011;12268;52.110;5.548;2023-07-30T03:24:54;21.83;;;6.45;;
24084;SDS011;12268;52.110;5.548;2023-07-30T03:27:20;26.23;;;7.18;;
24084;SDS011;12268;52.110;5.548;2023-07-30T03:29:46;17.83;;;6.70;;
24084;SDS011;12268;52.110;5.548;2023-07-30T03:32:11;21.98;;;6.65;;
24084;SDS011;12268;52.110;5.548;2023-07-30T03:34:37;24.05;;;6.68;;
24084;SDS011;12268;52.110;5.548;2023-07-30T03:37:02;29.48;;;7.07;;
24084;SDS011;12268;52.110;5.548;2023-07-30T03:39:28;21.38;;;7.25;;
24084;SDS011;12268;52.110;5.548;2023-07-30T03:41:54;21.45;;;7.22;;
24084;SDS011;12268;52.110;5.548;2023-07-30T03:44:19;21.58;;;7.20;;
24084;SDS011;12268;52.110;5.548;2023-07-30T03:46:45;29.40;;;7.60;;
24084;SDS011;12268;52.110;5.548;2023-07-30T03:49:11;24.55;;;7.30;;
24084;SDS011;12268;52.110;5.548;2023-07-30T03:51:36;21.42;;;7.93;;
24084;SDS011;12268;52.110;5.548;2023-07-30T03:54:03;19.10;;;7.88;;
24084;SDS011;12268;52.110;5.548;2023-07-30T03:56:29;26.13;;;7.60;;
24084;SDS011;12268;52.110;5.548;2023-07-30T03:58:55;29.25;;;8.70;;
24084;SDS011;12268;52.110;5.548;2023-07-30T04:01:21;22.52;;;7.97;;
24084;SDS011;12268;52.110;5.548;2023-07-30T04:03:46;35.97;;;8.38;;
24084;SDS011;12268;52.110;5.548;2023-07-30T04:06:12;28.45;;;8.00;;
24084;SDS011;12268;52.110;5.548;2023-07-30T04:08:37;23.83;;;8.40;;
24084;SDS011;12268;52.110;5.548;2023-07-30T04:11:03;28.73;;;8.35;;
24084;SDS011;12268;52.110;5.548;2023-07-30T04:13:28;33.35;;;8.98;;
24084;SDS011;12268;52.110;5.548;2023-07-30T04:15:54;33.20;;;9.68;;
24084;SDS011;12268;52.110;5.548;2023-07-30T04:18:19;26.00;;;9.05;;
24084;SDS011;12268;52.110;5.548;2023-07-30T04:20:45;32.10;;;9.98;;
24084;SDS011;12268;52.110;5.548;2023-07-30T04:23:11;27.50;;;10.25;;
24084;SDS011;12268;52.110;5.548;2023-07-30T04:25:36;30.52;;;10.23;;
24084;SDS011;12268;52.110;5.548;2023-07-30T04:28:02;35.17;;;11.50;;
24084;SDS011;12268;52.110;5.548;2023-07-30T04:30:27;32.88;;;11.45;;
24084;SDS011;12268;52.110;5.548;2023-07-30T04:32:53;28.88;;;11.77;;
24084;SDS011;12268;52.110;5.548;2023-07-30T04:35:18;35.17;;;12.60;;
24084;SDS011;12268;52.110;5.548;2023-07-30T04:37:44;38.67;;;11.82;;
24084;SDS011;12268;52.110;5.548;2023-07-30T04:40:09;42.00;;;12.88;;
24084;SDS011;12268;52.110;5.548;2023-07-30T04:42:35;35.97;;;11.82;;
24084;SDS011;12268;52.110;5.548;2023-07-30T04:45:04;39.55;;;13.07;;
24084;SDS011;12268;52.110;5.548;2023-07-30T04:47:33;46.25;;;12.95;;
24084;SDS011;12268;52.110;5.548;2023-07-30T09:01:11;14.20;;;4.22;;
24084;SDS011;12268;52.110;5.548;2023-07-30T09:03:38;17.02;;;4.18;;
24084;SDS011;12268;52.110;5.548;2023-07-30T09:06:05;18.13;;;4.75;;
24084;SDS011;12268;52.110;5.548;2023-07-30T09:08:31;16.50;;;4.20;;
24084;SDS011;12268;52.110;5.548;2023-07-30T09:11:05;14.70;;;4.35;;
24084;SDS011;12268;52.110;5.548;2023-07-30T09:13:36;19.15;;;4.70;;
24084;SDS011;12268;52.110;5.548;2023-07-30T09:16:10;19.58;;;5.05;;
24084;SDS011;12268;52.110;5.548;2023-07-30T09:18:40;15.52;;;4.38;;
24084;SDS011;12268;52.110;5.548;2023-07-30T10:31:02;9.63;;;2.60;;
24084;SDS011;12268;52.110;5.548;2023-07-30T10:33:45;9.73;;;2.60;;
24084;SDS011;12268;52.110;5.548;2023-07-30T10:36:32;13.20;;;2.58;;
24084;SDS011;12268;52.110;5.548;2023-07-30T10:39:08;7.85;;;2.20;;
24084;SDS011;12268;52.110;5.548;2023-07-30T10:41:40;8.55;;;2.45;;
24084;SDS011;12268;52.110;5.548;2023-07-30T14:59:49;7.18;;;1.80;;
24084;SDS011;12268;52.110;5.548;2023-07-30T15:02:14;9.70;;;1.92;;
24084;SDS011;12268;52.110;5.548;2023-07-30T15:04:40;8.15;;;1.95;;
24084;SDS011;12268;52.110;5.548;2023-07-30T15:07:05;11.57;;;2.33;;
24084;SDS011;12268;52.110;5.548;2023-07-30T15:09:31;7.25;;;1.85;;
24084;SDS011;12268;52.110;5.548;2023-07-30T15:12:00;9.88;;;2.20;;
24084;SDS011;12268;52.110;5.548;2023-07-30T15:14:26;10.48;;;2.35;;
24084;SDS011;12268;52.110;5.548;2023-07-30T15:16:51;9.45;;;2.90;;
24084;SDS011;12268;52.110;5.548;2023-07-30T16:29:12;12.68;;;3.05;;
24084;SDS011;12268;52.110;5.548;2023-07-30T16:31:37;14.23;;;2.85;;
24084;SDS011;12268;52.110;5.548;2023-07-30T16:34:03;9.20;;;2.95;;
24084;SDS011;12268;52.110;5.548;2023-07-30T16:36:28;12.25;;;2.80;;
24084;SDS011;12268;52.110;5.548;2023-07-30T16:38:54;14.60;;;3.10;;
24084;SDS011;12268;52.110;5.548;2023-07-30T16:41:21;16.60;;;3.38;;
24084;SDS011;12268;52.110;5.548;2023-07-30T16:43:47;12.27;;;3.33;;
24084;SDS011;12268;52.110;5.548;2023-07-30T16:46:12;15.65;;;4.47;;
24084;SDS011;12268;52.110;5.548;2023-07-30T16:48:38;12.43;;;3.00;;
24084;SDS011;12268;52.110;5.548;2023-07-30T19:00:32;8.95;;;3.70;;
24084;SDS011;12268;52.110;5.548;2023-07-30T19:02:57;9.40;;;3.67;;
24084;SDS011;12268;52.110;5.548;2023-07-30T19:05:23;8.25;;;3.58;;
24084;SDS011;12268;52.110;5.548;2023-07-30T19:07:48;8.25;;;4.10;;
24084;SDS011;12268;52.110;5.548;2023-07-30T19:10:14;8.82;;;3.80;;
24084;SDS011;12268;52.110;5.548;2023-07-30T19:12:40;8.07;;;4.20;;
24084;SDS011;12268;52.110;5.548;2023-07-30T19:15:06;9.52;;;3.97;;
24084;SDS011;12268;52.110;5.548;2023-07-30T19:17:32;9.52;;;4.60;;
24084;SDS011;12268;52.110;5.548;2023-07-30T20:29:59;9.07;;;5.20;;
24084;SDS011;12268;52.110;5.548;2023-07-30T20:32:25;10.00;;;5.60;;
24084;SDS011;12268;52.110;5.548;2023-07-30T20:34:52;9.90;;;5.43;;
24084;SDS011;12268;52.110;5.548;2023-07-30T20:37:18;8.13;;;4.97;;
24084;SDS011;12268;52.110;5.548;2023-07-30T20:39:43;9.93;;;5.25;;
24084;SDS011;12268;52.110;5.548;2023-07-30T20:42:09;8.68;;;4.80;;
24084;SDS011;12268;52.110;5.548;2023-07-30T20:44:34;8.98;;;4.40;;
24084;SDS011;12268;52.110;5.548;2023-07-30T20:47:00;9.77;;;4.47;;
24084;SDS011;12268;52.110;5.548;2023-07-30T23:01:59;5.78;;;3.50;;
24084;SDS011;12268;52.110;5.548;2023-07-30T23:04:24;4.90;;;3.53;;
24084;SDS011;12268;52.110;5.548;2023-07-30T23:06:51;5.22;;;3.42;;
24084;SDS011;12268;52.110;5.548;2023-07-30T23:09:17;5.32;;;3.53;;
24084;SDS011;12268;52.110;5.548;2023-07-30T23:11:42;4.85;;;3.25;;
24084;SDS011;12268;52.110;5.548;2023-07-30T23:14:10;5.93;;;3.33;;
24084;SDS011;12268;52.110;5.548;2023-07-30T23:16:35;5.32;;;3.47;;
24084;SDS011;12268;52.110;5.548;2023-07-30T23:19:01;5.20;;;3.42;;
